sensor_id;sensor_type;location;lat;lon;timestamp;P1;durP1;ratioP1;P2;durP2;ratioP2
19891;SDS011;10108;50.142;8.724;2023-03-12T00:02:15;25.17;;;12.30;;
19891;SDS011;10108;50.142;8.724;2023-03-12T00:04:42;22.55;;;11.88;;
19891;SDS011;10108;50.142;8.724;2023-03-12T00:07:08;20.10;;;10.80;;
19891;SDS011;10108;50.142;8.724;2023-03-12T00:09:35;24.17;;;11.23;;
19891;SDS011;10108;50.142;8.724;2023-03-12T00:12:02;22.13;;;11.40;;
19891;SDS011;10108;50.142;8.724;2023-03-12T00:14:28;19.63;;;10.95;;
19891;SDS011;10108;50.142;8.724;2023-03-12T00:16:55;20.80;;;10.63;;
19891;SDS011;10108;50.142;8.724;2023-03-12T00:19:21;21.45;;;11.10;;
19891;SDS011;10108;50.142;8.724;2023-03-12T00:21:47;24.40;;;10.32;;
19891;SDS011;10108;50.142;8.724;2023-03-12T00:24:14;20.60;;;10.13;;
19891;SDS011;10108;50.142;8.724;2023-03-12T00:26:41;23.08;;;10.77;;
19891;SDS011;10108;50.142;8.724;2023-03-12T00:29:08;18.73;;;10.32;;
19891;SDS011;10108;50.142;8.724;2023-03-12T00:31:34;19.55;;;10.00;;
19891;SDS011;10108;50.142;8.724;2023-03-12T00:34:01;19.35;;;10.10;;
19891;SDS011;10108;50.142;8.724;2023-03-12T00:36:29;18.90;;;10.73;;
19891;SDS011;10108;50.142;8.724;2023-03-12T00:38:57;20.48;;;10.35;;
19891;SDS011;10108;50.142;8.724;2023-03-12T00:41:23;23.40;;;10.90;;
19891;SDS011;10108;50.142;8.724;2023-03-12T00:43:51;19.15;;;10.65;;
19891;SDS011;10108;50.142;8.724;2023-03-12T00:46:18;20.02;;;10.48;;
19891;SDS011;10108;50.142;8.724;2023-03-12T00:48:44;21.23;;;11.00;;
19891;SDS011;10108;50.142;8.724;2023-03-12T00:51:11;19.65;;;10.70;;
19891;SDS011;10108;50.142;8.724;2023-03-12T00:53:37;19.92;;;10.82;;
19891;SDS011;10108;50.142;8.724;2023-03-12T00:56:04;19.48;;;11.05;;
19891;SDS011;10108;50.142;8.724;2023-03-12T00:58:31;17.27;;;10.57;;
19891;SDS011;10108;50.142;8.724;2023-03-12T01:00:57;18.77;;;10.50;;
19891;SDS011;10108;50.142;8.724;2023-03-12T01:03:24;18.17;;;10.55;;
19891;SDS011;10108;50.142;8.724;2023-03-12T01:05:50;20.60;;;11.32;;
19891;SDS011;10108;50.142;8.724;2023-03-12T01:08:19;19.25;;;10.48;;
19891;SDS011;10108;50.142;8.724;2023-03-12T01:10:46;19.17;;;10.10;;
19891;SDS011;10108;50.142;8.724;2023-03-12T01:13:12;18.85;;;10.70;;
19891;SDS011;10108;50.142;8.724;2023-03-12T01:15:38;20.67;;;10.70;;
19891;SDS011;10108;50.142;8.724;2023-03-12T01:18:04;19.67;;;10.80;;
19891;SDS011;10108;50.142;8.724;2023-03-12T01:20:30;22.52;;;10.25;;
19891;SDS011;10108;50.142;8.724;2023-03-12T01:22:56;24.75;;;10.80;;
19891;SDS011;10108;50.142;8.724;2023-03-12T01:25:22;21.40;;;10.38;;
19891;SDS011;10108;50.142;8.724;2023-03-12T01:27:49;18.80;;;10.40;;
19891;SDS011;10108;50.142;8.724;2023-03-12T01:30:16;18.95;;;10.15;;
19891;SDS011;10108;50.142;8.724;2023-03-12T01:32:42;17.98;;;9.43;;
19891;SDS011;10108;50.142;8.724;2023-03-12T01:35:09;19.30;;;9.80;;
19891;SDS011;10108;50.142;8.724;2023-03-12T01:37:35;19.40;;;9.93;;
19891;SDS011;10108;50.142;8.724;2023-03-12T01:40:02;19.45;;;9.70;;
19891;SDS011;10108;50.142;8.724;2023-03-12T01:42:29;18.75;;;9.80;;
19891;SDS011;10108;50.142;8.724;2023-03-12T01:44:57;18.58;;;9.70;;
19891;SDS011;10108;50.142;8.724;2023-03-12T01:47:25;18.65;;;9.57;;
19891;SDS011;10108;50.142;8.724;2023-03-12T01:49:52;16.33;;;9.77;;
19891;SDS011;10108;50.142;8.724;2023-03-12T01:52:19;18.55;;;9.55;;
19891;SDS011;10108;50.142;8.724;2023-03-12T01:57:49;22.23;;;9.27;;
19891;SDS011;10108;50.142;8.724;2023-03-12T02:00:19;17.83;;;9.73;;
19891;SDS011;10108;50.142;8.724;2023-03-12T02:02:46;15.50;;;9.40;;
19891;SDS011;10108;50.142;8.724;2023-03-12T02:05:19;18.90;;;9.30;;
19891;SDS011;10108;50.142;8.724;2023-03-12T02:07:47;21.02;;;9.98;;
19891;SDS011;10108;50.142;8.724;2023-03-12T02:10:14;18.23;;;9.75;;
19891;SDS011;10108;50.142;8.724;2023-03-12T02:12:41;16.60;;;9.25;;
19891;SDS011;10108;50.142;8.724;2023-03-12T02:15:07;14.27;;;8.88;;
19891;SDS011;10108;50.142;8.724;2023-03-12T02:17:35;17.40;;;8.90;;
19891;SDS011;10108;50.142;8.724;2023-03-12T02:22:36;21.00;;;9.57;;
19891;SDS011;10108;50.142;8.724;2023-03-12T02:27:40;15.40;;;9.10;;
19891;SDS011;10108;50.142;8.724;2023-03-12T02:30:07;17.35;;;9.13;;
19891;SDS011;10108;50.142;8.724;2023-03-12T02:32:34;14.85;;;8.73;;
19891;SDS011;10108;50.142;8.724;2023-03-12T02:35:04;16.80;;;8.85;;
19891;SDS011;10108;50.142;8.724;2023-03-12T02:37:31;17.60;;;9.10;;
19891;SDS011;10108;50.142;8.724;2023-03-12T02:39:59;19.20;;;9.07;;
19891;SDS011;10108;50.142;8.724;2023-03-12T02:42:31;17.67;;;9.00;;
19891;SDS011;10108;50.142;8.724;2023-03-12T02:44:58;17.08;;;9.07;;
19891;SDS011;10108;50.142;8.724;2023-03-12T02:47:26;18.58;;;9.45;;
19891;SDS011;10108;50.142;8.724;2023-03-12T02:49:52;18.55;;;8.98;;
19891;SDS011;10108;50.142;8.724;2023-03-12T02:52:19;19.70;;;8.93;;
19891;SDS011;10108;50.142;8.724;2023-03-12T02:54:47;15.40;;;8.65;;
19891;SDS011;10108;50.142;8.724;2023-03-12T02:57:14;15.07;;;8.75;;
19891;SDS011;10108;50.142;8.724;2023-03-12T02:59:40;15.15;;;9.30;;
19891;SDS011;10108;50.142;8.724;2023-03-12T03:02:07;19.45;;;8.85;;
19891;SDS011;10108;50.142;8.724;2023-03-12T03:04:37;19.05;;;9.00;;
19891;SDS011;10108;50.142;8.724;2023-03-12T03:07:03;18.13;;;9.18;;
19891;SDS011;10108;50.142;8.724;2023-03-12T03:09:30;16.08;;;8.80;;
19891;SDS011;10108;50.142;8.724;2023-03-12T03:11:56;17.08;;;8.75;;
19891;SDS011;10108;50.142;8.724;2023-03-12T03:14:25;14.43;;;8.80;;
19891;SDS011;10108;50.142;8.724;2023-03-12T03:16:52;18.33;;;8.75;;
19891;SDS011;10108;50.142;8.724;2023-03-12T03:19:21;17.10;;;8.60;;
19891;SDS011;10108;50.142;8.724;2023-03-12T03:21:47;19.13;;;9.27;;
19891;SDS011;10108;50.142;8.724;2023-03-12T03:24:14;16.77;;;8.98;;
19891;SDS011;10108;50.142;8.724;2023-03-12T03:26:42;13.80;;;8.43;;
19891;SDS011;10108;50.142;8.724;2023-03-12T03:29:09;14.43;;;8.38;;
19891;SDS011;10108;50.142;8.724;2023-03-12T03:31:35;13.23;;;8.30;;
19891;SDS011;10108;50.142;8.724;2023-03-12T03:34:02;15.18;;;8.25;;
19891;SDS011;10108;50.142;8.724;2023-03-12T03:36:29;15.05;;;8.73;;
19891;SDS011;10108;50.142;8.724;2023-03-12T03:39:00;14.63;;;8.65;;
19891;SDS011;10108;50.142;8.724;2023-03-12T03:41:29;13.88;;;8.00;;
19891;SDS011;10108;50.142;8.724;2023-03-12T03:43:57;14.82;;;8.57;;
19891;SDS011;10108;50.142;8.724;2023-03-12T03:46:24;19.02;;;8.93;;
19891;SDS011;10108;50.142;8.724;2023-03-12T03:48:57;16.52;;;9.00;;
19891;SDS011;10108;50.142;8.724;2023-03-12T03:51:23;16.35;;;9.02;;
19891;SDS011;10108;50.142;8.724;2023-03-12T03:53:54;15.70;;;8.10;;
19891;SDS011;10108;50.142;8.724;2023-03-12T03:56:22;20.75;;;8.73;;
19891;SDS011;10108;50.142;8.724;2023-03-12T03:58:49;21.88;;;8.00;;
19891;SDS011;10108;50.142;8.724;2023-03-12T04:01:18;17.80;;;8.50;;
19891;SDS011;10108;50.142;8.724;2023-03-12T04:03:45;13.88;;;8.23;;
19891;SDS011;10108;50.142;8.724;2023-03-12T04:06:12;13.50;;;7.85;;
19891;SDS011;10108;50.142;8.724;2023-03-12T04:08:39;18.10;;;8.75;;
19891;SDS011;10108;50.142;8.724;2023-03-12T04:11:13;15.10;;;8.32;;
19891;SDS011;10108;50.142;8.724;2023-03-12T04:13:40;15.82;;;8.07;;
19891;SDS011;10108;50.142;8.724;2023-03-12T04:16:07;17.50;;;8.85;;
19891;SDS011;10108;50.142;8.724;2023-03-12T04:18:34;13.82;;;8.70;;
19891;SDS011;10108;50.142;8.724;2023-03-12T04:21:02;16.02;;;8.18;;
19891;SDS011;10108;50.142;8.724;2023-03-12T04:23:29;15.93;;;8.57;;
19891;SDS011;10108;50.142;8.724;2023-03-12T04:25:55;12.88;;;7.93;;
19891;SDS011;10108;50.142;8.724;2023-03-12T04:28:22;16.30;;;8.48;;
19891;SDS011;10108;50.142;8.724;2023-03-12T04:30:59;15.93;;;8.82;;
19891;SDS011;10108;50.142;8.724;2023-03-12T04:33:30;13.23;;;8.23;;
19891;SDS011;10108;50.142;8.724;2023-03-12T04:35:57;17.23;;;8.45;;
19891;SDS011;10108;50.142;8.724;2023-03-12T04:38:24;16.55;;;8.45;;
19891;SDS011;10108;50.142;8.724;2023-03-12T04:40:59;14.27;;;8.45;;
19891;SDS011;10108;50.142;8.724;2023-03-12T04:43:26;14.10;;;8.38;;
19891;SDS011;10108;50.142;8.724;2023-03-12T04:45:52;13.20;;;7.50;;
19891;SDS011;10108;50.142;8.724;2023-03-12T04:48:19;13.13;;;8.25;;
19891;SDS011;10108;50.142;8.724;2023-03-12T04:50:46;16.77;;;8.48;;
19891;SDS011;10108;50.142;8.724;2023-03-12T04:53:13;15.48;;;8.35;;
19891;SDS011;10108;50.142;8.724;2023-03-12T04:55:39;12.57;;;7.80;;
19891;SDS011;10108;50.142;8.724;2023-03-12T04:58:06;15.40;;;8.43;;
19891;SDS011;10108;50.142;8.724;2023-03-12T05:00:32;14.10;;;8.05;;
19891;SDS011;10108;50.142;8.724;2023-03-12T05:02:59;16.58;;;8.20;;
19891;SDS011;10108;50.142;8.724;2023-03-12T05:05:26;14.48;;;7.95;;
19891;SDS011;10108;50.142;8.724;2023-03-12T05:07:52;14.18;;;8.20;;
19891;SDS011;10108;50.142;8.724;2023-03-12T05:10:19;15.95;;;7.85;;
19891;SDS011;10108;50.142;8.724;2023-03-12T05:12:45;16.40;;;8.68;;
19891;SDS011;10108;50.142;8.724;2023-03-12T05:15:11;15.35;;;8.50;;
19891;SDS011;10108;50.142;8.724;2023-03-12T05:17:38;16.83;;;8.52;;
19891;SDS011;10108;50.142;8.724;2023-03-12T05:20:05;12.88;;;8.30;;
19891;SDS011;10108;50.142;8.724;2023-03-12T05:22:32;14.40;;;8.30;;
19891;SDS011;10108;50.142;8.724;2023-03-12T05:24:58;12.13;;;7.97;;
19891;SDS011;10108;50.142;8.724;2023-03-12T05:27:25;16.45;;;8.50;;
19891;SDS011;10108;50.142;8.724;2023-03-12T05:29:53;14.90;;;8.23;;
19891;SDS011;10108;50.142;8.724;2023-03-12T05:32:20;17.63;;;8.20;;
19891;SDS011;10108;50.142;8.724;2023-03-12T05:34:47;15.93;;;8.90;;
19891;SDS011;10108;50.142;8.724;2023-03-12T05:37:14;13.93;;;8.80;;
19891;SDS011;10108;50.142;8.724;2023-03-12T05:39:41;15.15;;;8.70;;
19891;SDS011;10108;50.142;8.724;2023-03-12T05:42:12;12.73;;;8.27;;
19891;SDS011;10108;50.142;8.724;2023-03-12T05:44:39;15.68;;;8.25;;
19891;SDS011;10108;50.142;8.724;2023-03-12T05:47:08;13.30;;;8.20;;
19891;SDS011;10108;50.142;8.724;2023-03-12T05:49:36;13.13;;;8.20;;
19891;SDS011;10108;50.142;8.724;2023-03-12T05:52:03;13.95;;;8.10;;
19891;SDS011;10108;50.142;8.724;2023-03-12T05:54:30;17.48;;;8.18;;
19891;SDS011;10108;50.142;8.724;2023-03-12T05:56:56;14.07;;;8.18;;
19891;SDS011;10108;50.142;8.724;2023-03-12T05:59:24;12.85;;;7.63;;
19891;SDS011;10108;50.142;8.724;2023-03-12T06:01:52;16.52;;;7.90;;
19891;SDS011;10108;50.142;8.724;2023-03-12T06:04:18;15.20;;;8.20;;
19891;SDS011;10108;50.142;8.724;2023-03-12T06:06:45;16.00;;;8.23;;
19891;SDS011;10108;50.142;8.724;2023-03-12T06:09:12;14.32;;;8.60;;
19891;SDS011;10108;50.142;8.724;2023-03-12T06:11:39;13.95;;;8.23;;
19891;SDS011;10108;50.142;8.724;2023-03-12T06:14:05;16.17;;;8.13;;
19891;SDS011;10108;50.142;8.724;2023-03-12T06:16:35;16.05;;;8.80;;
19891;SDS011;10108;50.142;8.724;2023-03-12T06:19:02;17.58;;;8.55;;
19891;SDS011;10108;50.142;8.724;2023-03-12T06:21:31;17.40;;;8.10;;
19891;SDS011;10108;50.142;8.724;2023-03-12T06:23:59;18.52;;;8.88;;
19891;SDS011;10108;50.142;8.724;2023-03-12T06:26:31;16.83;;;8.23;;
19891;SDS011;10108;50.142;8.724;2023-03-12T06:28:57;14.35;;;7.75;;
19891;SDS011;10108;50.142;8.724;2023-03-12T06:31:24;13.02;;;7.65;;
19891;SDS011;10108;50.142;8.724;2023-03-12T06:33:50;14.43;;;8.13;;
19891;SDS011;10108;50.142;8.724;2023-03-12T06:36:18;15.88;;;7.97;;
19891;SDS011;10108;50.142;8.724;2023-03-12T06:38:44;15.85;;;7.82;;
19891;SDS011;10108;50.142;8.724;2023-03-12T06:41:11;12.90;;;8.00;;
19891;SDS011;10108;50.142;8.724;2023-03-12T06:43:39;16.83;;;8.02;;
19891;SDS011;10108;50.142;8.724;2023-03-12T06:46:07;15.23;;;7.75;;
19891;SDS011;10108;50.142;8.724;2023-03-12T06:48:35;14.82;;;8.27;;
19891;SDS011;10108;50.142;8.724;2023-03-12T06:51:02;14.52;;;8.18;;
19891;SDS011;10108;50.142;8.724;2023-03-12T06:53:29;12.32;;;7.10;;
19891;SDS011;10108;50.142;8.724;2023-03-12T06:55:55;13.27;;;7.72;;
19891;SDS011;10108;50.142;8.724;2023-03-12T06:58:21;13.32;;;6.93;;
19891;SDS011;10108;50.142;8.724;2023-03-12T07:00:47;13.18;;;7.47;;
19891;SDS011;10108;50.142;8.724;2023-03-12T07:03:16;19.15;;;7.95;;
19891;SDS011;10108;50.142;8.724;2023-03-12T07:05:43;11.07;;;6.85;;
19891;SDS011;10108;50.142;8.724;2023-03-12T07:08:10;14.40;;;8.10;;
19891;SDS011;10108;50.142;8.724;2023-03-12T07:10:37;12.98;;;7.45;;
19891;SDS011;10108;50.142;8.724;2023-03-12T07:13:03;19.00;;;7.82;;
19891;SDS011;10108;50.142;8.724;2023-03-12T07:15:29;16.52;;;7.28;;
19891;SDS011;10108;50.142;8.724;2023-03-12T07:17:58;14.27;;;7.50;;
19891;SDS011;10108;50.142;8.724;2023-03-12T07:20:31;13.82;;;7.45;;
19891;SDS011;10108;50.142;8.724;2023-03-12T07:23:00;19.00;;;8.32;;
19891;SDS011;10108;50.142;8.724;2023-03-12T07:25:26;17.40;;;8.45;;
19891;SDS011;10108;50.142;8.724;2023-03-12T07:27:52;14.38;;;7.80;;
19891;SDS011;10108;50.142;8.724;2023-03-12T07:30:19;12.57;;;7.18;;
19891;SDS011;10108;50.142;8.724;2023-03-12T07:32:45;12.48;;;7.07;;
19891;SDS011;10108;50.142;8.724;2023-03-12T07:35:11;11.82;;;7.40;;
19891;SDS011;10108;50.142;8.724;2023-03-12T07:37:37;15.55;;;7.25;;
19891;SDS011;10108;50.142;8.724;2023-03-12T07:40:04;18.40;;;7.22;;
19891;SDS011;10108;50.142;8.724;2023-03-12T07:42:34;11.73;;;6.90;;
19891;SDS011;10108;50.142;8.724;2023-03-12T07:45:01;12.32;;;6.75;;
19891;SDS011;10108;50.142;8.724;2023-03-12T07:47:28;14.75;;;7.90;;
19891;SDS011;10108;50.142;8.724;2023-03-12T07:49:54;14.02;;;6.97;;
19891;SDS011;10108;50.142;8.724;2023-03-12T07:52:20;11.93;;;6.28;;
19891;SDS011;10108;50.142;8.724;2023-03-12T07:54:48;12.77;;;6.40;;
19891;SDS011;10108;50.142;8.724;2023-03-12T07:57:14;10.90;;;6.30;;
19891;SDS011;10108;50.142;8.724;2023-03-12T07:59:40;13.13;;;6.60;;
19891;SDS011;10108;50.142;8.724;2023-03-12T08:02:08;11.43;;;6.03;;
19891;SDS011;10108;50.142;8.724;2023-03-12T08:04:35;12.00;;;6.43;;
19891;SDS011;10108;50.142;8.724;2023-03-12T08:07:01;11.20;;;5.95;;
19891;SDS011;10108;50.142;8.724;2023-03-12T08:09:27;12.60;;;6.25;;
19891;SDS011;10108;50.142;8.724;2023-03-12T08:11:54;10.77;;;5.93;;
19891;SDS011;10108;50.142;8.724;2023-03-12T08:14:20;12.38;;;6.07;;
19891;SDS011;10108;50.142;8.724;2023-03-12T08:16:46;12.85;;;6.20;;
19891;SDS011;10108;50.142;8.724;2023-03-12T08:19:12;10.70;;;6.38;;
19891;SDS011;10108;50.142;8.724;2023-03-12T08:21:38;13.10;;;6.47;;
19891;SDS011;10108;50.142;8.724;2023-03-12T08:24:04;13.57;;;6.88;;
19891;SDS011;10108;50.142;8.724;2023-03-12T08:26:30;10.90;;;6.45;;
19891;SDS011;10108;50.142;8.724;2023-03-12T08:28:56;14.57;;;6.80;;
19891;SDS011;10108;50.142;8.724;2023-03-12T08:31:25;12.80;;;7.40;;
19891;SDS011;10108;50.142;8.724;2023-03-12T08:33:52;13.35;;;7.45;;
19891;SDS011;10108;50.142;8.724;2023-03-12T08:36:18;12.52;;;7.13;;
19891;SDS011;10108;50.142;8.724;2023-03-12T08:38:44;14.55;;;7.20;;
19891;SDS011;10108;50.142;8.724;2023-03-12T08:41:10;12.23;;;7.10;;
19891;SDS011;10108;50.142;8.724;2023-03-12T08:43:36;18.92;;;8.18;;
19891;SDS011;10108;50.142;8.724;2023-03-12T08:46:03;15.60;;;7.20;;
19891;SDS011;10108;50.142;8.724;2023-03-12T08:48:30;13.25;;;7.75;;
19891;SDS011;10108;50.142;8.724;2023-03-12T08:50:57;16.75;;;8.75;;
19891;SDS011;10108;50.142;8.724;2023-03-12T08:53:25;17.63;;;7.65;;
19891;SDS011;10108;50.142;8.724;2023-03-12T08:55:52;14.55;;;8.65;;
19891;SDS011;10108;50.142;8.724;2023-03-12T08:58:20;13.68;;;8.75;;
19891;SDS011;10108;50.142;8.724;2023-03-12T09:00:47;18.77;;;7.90;;
19891;SDS011;10108;50.142;8.724;2023-03-12T09:03:13;13.95;;;8.15;;
19891;SDS011;10108;50.142;8.724;2023-03-12T09:05:40;12.10;;;8.10;;
19891;SDS011;10108;50.142;8.724;2023-03-12T09:08:07;16.48;;;8.38;;
19891;SDS011;10108;50.142;8.724;2023-03-12T09:10:34;14.50;;;8.25;;
19891;SDS011;10108;50.142;8.724;2023-03-12T09:13:01;13.63;;;8.38;;
19891;SDS011;10108;50.142;8.724;2023-03-12T09:15:27;15.35;;;8.75;;
19891;SDS011;10108;50.142;8.724;2023-03-12T09:17:54;15.50;;;9.38;;
19891;SDS011;10108;50.142;8.724;2023-03-12T09:20:21;15.55;;;9.40;;
19891;SDS011;10108;50.142;8.724;2023-03-12T09:22:48;13.70;;;9.25;;
19891;SDS011;10108;50.142;8.724;2023-03-12T09:25:14;14.85;;;9.57;;
19891;SDS011;10108;50.142;8.724;2023-03-12T09:27:43;17.30;;;9.63;;
19891;SDS011;10108;50.142;8.724;2023-03-12T09:30:12;15.13;;;9.98;;
19891;SDS011;10108;50.142;8.724;2023-03-12T09:32:40;15.93;;;9.60;;
19891;SDS011;10108;50.142;8.724;2023-03-12T09:35:06;16.42;;;10.50;;
19891;SDS011;10108;50.142;8.724;2023-03-12T09:37:34;15.55;;;10.85;;
19891;SDS011;10108;50.142;8.724;2023-03-12T09:40:00;22.50;;;11.20;;
19891;SDS011;10108;50.142;8.724;2023-03-12T09:42:37;17.65;;;11.88;;
19891;SDS011;10108;50.142;8.724;2023-03-12T09:45:20;22.75;;;11.85;;
19891;SDS011;10108;50.142;8.724;2023-03-12T09:47:50;24.75;;;14.05;;
19891;SDS011;10108;50.142;8.724;2023-03-12T09:55:39;22.83;;;14.00;;
19891;SDS011;10108;50.142;8.724;2023-03-12T10:01:22;23.38;;;13.98;;
19891;SDS011;10108;50.142;8.724;2023-03-12T10:06:44;27.15;;;15.90;;
19891;SDS011;10108;50.142;8.724;2023-03-12T10:09:35;24.05;;;14.75;;
19891;SDS011;10108;50.142;8.724;2023-03-12T10:12:23;24.55;;;15.57;;
19891;SDS011;10108;50.142;8.724;2023-03-12T10:15:43;25.52;;;15.63;;
19891;SDS011;10108;50.142;8.724;2023-03-12T10:26:38;30.02;;;17.15;;
19891;SDS011;10108;50.142;8.724;2023-03-12T10:29:12;30.83;;;17.80;;
19891;SDS011;10108;50.142;8.724;2023-03-12T10:31:47;31.13;;;16.95;;
19891;SDS011;10108;50.142;8.724;2023-03-12T10:34:16;38.20;;;18.90;;
19891;SDS011;10108;50.142;8.724;2023-03-12T10:36:47;34.35;;;18.85;;
19891;SDS011;10108;50.142;8.724;2023-03-12T10:39:15;36.28;;;19.00;;
19891;SDS011;10108;50.142;8.724;2023-03-12T10:41:44;32.67;;;19.52;;
19891;SDS011;10108;50.142;8.724;2023-03-12T10:44:22;32.60;;;19.30;;
19891;SDS011;10108;50.142;8.724;2023-03-12T10:49:36;33.70;;;19.38;;
19891;SDS011;10108;50.142;8.724;2023-03-12T10:54:42;36.53;;;20.85;;
19891;SDS011;10108;50.142;8.724;2023-03-12T10:57:13;35.05;;;20.38;;
19891;SDS011;10108;50.142;8.724;2023-03-12T10:59:41;31.77;;;20.15;;
19891;SDS011;10108;50.142;8.724;2023-03-12T11:02:29;33.63;;;21.30;;
19891;SDS011;10108;50.142;8.724;2023-03-12T11:04:57;32.80;;;20.02;;
19891;SDS011;10108;50.142;8.724;2023-03-12T11:07:34;35.78;;;21.55;;
19891;SDS011;10108;50.142;8.724;2023-03-12T11:12:33;38.67;;;21.23;;
19891;SDS011;10108;50.142;8.724;2023-03-12T11:17:45;37.10;;;21.42;;
19891;SDS011;10108;50.142;8.724;2023-03-12T11:22:50;33.65;;;22.08;;
19891;SDS011;10108;50.142;8.724;2023-03-12T11:25:20;32.55;;;21.85;;
19891;SDS011;10108;50.142;8.724;2023-03-12T11:27:54;37.88;;;23.02;;
19891;SDS011;10108;50.142;8.724;2023-03-12T11:30:38;31.27;;;20.65;;
19891;SDS011;10108;50.142;8.724;2023-03-12T11:33:05;36.20;;;23.67;;
19891;SDS011;10108;50.142;8.724;2023-03-12T11:35:38;38.03;;;21.20;;
19891;SDS011;10108;50.142;8.724;2023-03-12T11:38:45;35.45;;;21.65;;
19891;SDS011;10108;50.142;8.724;2023-03-12T11:41:25;36.13;;;20.88;;
19891;SDS011;10108;50.142;8.724;2023-03-12T11:44:12;35.13;;;21.13;;
19891;SDS011;10108;50.142;8.724;2023-03-12T11:46:51;34.13;;;20.13;;
19891;SDS011;10108;50.142;8.724;2023-03-12T11:49:36;31.77;;;20.58;;
19891;SDS011;10108;50.142;8.724;2023-03-12T11:52:46;33.03;;;20.08;;
19891;SDS011;10108;50.142;8.724;2023-03-12T11:56:32;33.45;;;20.00;;
19891;SDS011;10108;50.142;8.724;2023-03-12T11:58:52;35.42;;;21.35;;
19891;SDS011;10108;50.142;8.724;2023-03-12T12:04:12;34.17;;;19.33;;
19891;SDS011;10108;50.142;8.724;2023-03-12T12:07:02;30.23;;;20.20;;
19891;SDS011;10108;50.142;8.724;2023-03-12T12:20:37;24.70;;;16.15;;
19891;SDS011;10108;50.142;8.724;2023-03-12T12:23:14;27.30;;;16.20;;
19891;SDS011;10108;50.142;8.724;2023-03-12T12:31:22;26.15;;;16.35;;
19891;SDS011;10108;50.142;8.724;2023-03-12T12:37:16;23.45;;;15.25;;
19891;SDS011;10108;50.142;8.724;2023-03-12T12:43:00;25.90;;;16.55;;
19891;SDS011;10108;50.142;8.724;2023-03-12T12:45:36;26.40;;;16.92;;
19891;SDS011;10108;50.142;8.724;2023-03-12T12:48:06;25.35;;;16.05;;
19891;SDS011;10108;50.142;8.724;2023-03-12T12:50:51;25.60;;;16.90;;
19891;SDS011;10108;50.142;8.724;2023-03-12T12:53:25;25.30;;;16.45;;
19891;SDS011;10108;50.142;8.724;2023-03-12T12:58:53;27.75;;;17.75;;
19891;SDS011;10108;50.142;8.724;2023-03-12T13:01:23;26.75;;;16.90;;
19891;SDS011;10108;50.142;8.724;2023-03-12T13:03:50;29.15;;;18.05;;
19891;SDS011;10108;50.142;8.724;2023-03-12T13:06:19;26.33;;;16.50;;
19891;SDS011;10108;50.142;8.724;2023-03-12T13:13:48;29.48;;;17.35;;
19891;SDS011;10108;50.142;8.724;2023-03-12T13:16:30;26.63;;;16.20;;
19891;SDS011;10108;50.142;8.724;2023-03-12T13:24:23;23.42;;;15.25;;
19891;SDS011;10108;50.142;8.724;2023-03-12T13:27:16;24.25;;;15.27;;
19891;SDS011;10108;50.142;8.724;2023-03-12T13:29:53;21.67;;;14.85;;
19891;SDS011;10108;50.142;8.724;2023-03-12T13:32:36;22.55;;;15.93;;
19891;SDS011;10108;50.142;8.724;2023-03-12T13:43:00;24.33;;;15.80;;
19891;SDS011;10108;50.142;8.724;2023-03-12T13:45:27;25.17;;;15.93;;
19891;SDS011;10108;50.142;8.724;2023-03-12T13:47:59;25.40;;;15.52;;
19891;SDS011;10108;50.142;8.724;2023-03-12T13:50:27;25.85;;;15.40;;
19891;SDS011;10108;50.142;8.724;2023-03-12T13:53:01;21.55;;;14.75;;
19891;SDS011;10108;50.142;8.724;2023-03-12T13:55:29;20.55;;;14.32;;
19891;SDS011;10108;50.142;8.724;2023-03-12T13:57:57;21.13;;;13.60;;
19891;SDS011;10108;50.142;8.724;2023-03-12T14:02:58;25.77;;;15.98;;
19891;SDS011;10108;50.142;8.724;2023-03-12T14:05:26;23.50;;;14.00;;
19891;SDS011;10108;50.142;8.724;2023-03-12T14:08:05;19.65;;;12.75;;
19891;SDS011;10108;50.142;8.724;2023-03-12T14:15:56;21.35;;;13.60;;
19891;SDS011;10108;50.142;8.724;2023-03-12T14:18:27;20.10;;;13.50;;
19891;SDS011;10108;50.142;8.724;2023-03-12T14:20:58;25.85;;;15.20;;
19891;SDS011;10108;50.142;8.724;2023-03-12T14:23:33;22.75;;;14.60;;
19891;SDS011;10108;50.142;8.724;2023-03-12T14:26:03;22.98;;;14.73;;
19891;SDS011;10108;50.142;8.724;2023-03-12T14:28:31;23.30;;;14.32;;
19891;SDS011;10108;50.142;8.724;2023-03-12T14:31:11;23.75;;;15.35;;
19891;SDS011;10108;50.142;8.724;2023-03-12T14:39:44;25.83;;;13.98;;
19891;SDS011;10108;50.142;8.724;2023-03-12T14:42:20;25.52;;;14.68;;
19891;SDS011;10108;50.142;8.724;2023-03-12T14:44:56;23.58;;;14.95;;
19891;SDS011;10108;50.142;8.724;2023-03-12T14:47:25;23.25;;;15.27;;
19891;SDS011;10108;50.142;8.724;2023-03-12T14:49:54;22.05;;;13.73;;
19891;SDS011;10108;50.142;8.724;2023-03-12T14:52:28;23.30;;;14.70;;
19891;SDS011;10108;50.142;8.724;2023-03-12T14:55:05;20.00;;;13.77;;
19891;SDS011;10108;50.142;8.724;2023-03-12T14:57:35;22.95;;;14.70;;
19891;SDS011;10108;50.142;8.724;2023-03-12T15:00:03;21.92;;;14.63;;
19891;SDS011;10108;50.142;8.724;2023-03-12T15:02:40;19.77;;;13.65;;
19891;SDS011;10108;50.142;8.724;2023-03-12T15:05:13;24.80;;;14.13;;
19891;SDS011;10108;50.142;8.724;2023-03-12T15:07:42;23.65;;;15.02;;
19891;SDS011;10108;50.142;8.724;2023-03-12T15:12:49;24.75;;;15.25;;
19891;SDS011;10108;50.142;8.724;2023-03-12T15:18:12;23.83;;;14.90;;
19891;SDS011;10108;50.142;8.724;2023-03-12T15:20:45;25.52;;;16.75;;
19891;SDS011;10108;50.142;8.724;2023-03-12T15:23:13;25.65;;;17.10;;
19891;SDS011;10108;50.142;8.724;2023-03-12T15:25:40;28.70;;;16.83;;
19891;SDS011;10108;50.142;8.724;2023-03-12T15:30:35;24.80;;;15.82;;
19891;SDS011;10108;50.142;8.724;2023-03-12T15:33:07;25.00;;;15.98;;
19891;SDS011;10108;50.142;8.724;2023-03-12T15:38:29;26.42;;;16.42;;
19891;SDS011;10108;50.142;8.724;2023-03-12T15:41:05;22.70;;;15.48;;
19891;SDS011;10108;50.142;8.724;2023-03-12T15:43:34;23.55;;;15.30;;
19891;SDS011;10108;50.142;8.724;2023-03-12T15:46:02;25.23;;;16.17;;
19891;SDS011;10108;50.142;8.724;2023-03-12T15:48:31;22.60;;;15.10;;
19891;SDS011;10108;50.142;8.724;2023-03-12T15:51:03;28.38;;;15.43;;
19891;SDS011;10108;50.142;8.724;2023-03-12T15:53:57;22.58;;;15.13;;
19891;SDS011;10108;50.142;8.724;2023-03-12T15:56:24;29.15;;;16.30;;
19891;SDS011;10108;50.142;8.724;2023-03-12T16:01:52;27.15;;;15.38;;
19891;SDS011;10108;50.142;8.724;2023-03-12T16:04:19;25.98;;;14.77;;
19891;SDS011;10108;50.142;8.724;2023-03-12T16:06:47;28.17;;;15.82;;
19891;SDS011;10108;50.142;8.724;2023-03-12T16:11:52;22.95;;;15.60;;
19891;SDS011;10108;50.142;8.724;2023-03-12T16:14:21;22.48;;;14.60;;
19891;SDS011;10108;50.142;8.724;2023-03-12T16:16:59;25.83;;;16.20;;
19891;SDS011;10108;50.142;8.724;2023-03-12T16:19:27;25.08;;;14.85;;
19891;SDS011;10108;50.142;8.724;2023-03-12T16:21:54;26.95;;;14.93;;
19891;SDS011;10108;50.142;8.724;2023-03-12T16:24:21;26.05;;;14.63;;
19891;SDS011;10108;50.142;8.724;2023-03-12T16:26:48;24.10;;;14.82;;
19891;SDS011;10108;50.142;8.724;2023-03-12T16:29:19;22.20;;;14.20;;
19891;SDS011;10108;50.142;8.724;2023-03-12T16:31:50;24.67;;;15.05;;
19891;SDS011;10108;50.142;8.724;2023-03-12T16:34:19;23.48;;;14.30;;
19891;SDS011;10108;50.142;8.724;2023-03-12T16:36:46;21.33;;;14.25;;
19891;SDS011;10108;50.142;8.724;2023-03-12T16:39:12;22.38;;;13.65;;
19891;SDS011;10108;50.142;8.724;2023-03-12T16:41:38;24.13;;;15.38;;